Das ist die Wetter- und Hausseite der Bittkau's aus Magdeburg Ottersleben


Hier werden aktuelle Daten aus der privaten Wetterstation und

andere lokale Wettervorhersagen bereitgestellt




Thunder radar more information blitzortung!


Rain radar more information rain snow radar



Es ist keine erhöhte Aufmerksamkeit aufgrund des Wetters notwendig.    Es gibt keine Warnungen.

METAR-Meldungen aus der Umgebung

   
EDDP - Leipzig
Aktualisierung: 07.08.2020 8:50
Klar  
Klar  
   Wind: NO 7.4 km/h
Wind: NO 7.4 km/h
Temperatur: 29°C
Hitzeindex: 28°C
Taupunkt: 14°C
Luftfeuchte: 40%
Luftdruck: 1020 hPa
Sichtbarkeit: More than 10 km
Bewölkung: Klar
EDDP 071850Z 05004KT CAVOK 29/14 Q1020 NOSIG
EDDC - Dresden
Aktualisierung: 07.08.2020 8:50
Klar  
Klar  
   Wind: OSO 5.6 km/h
Wind: OSO 5.6 km/h
Temperatur: 28°C
Hitzeindex: 28°C
Taupunkt: 14°C
Luftfeuchte: 42%
Luftdruck: 1021 hPa
Sichtbarkeit: More than 10 km
Bewölkung: Klar
EDDC 071850Z 12003KT CAVOK 28/14 Q1021 NOSIG
EDDE - Erfurt
Aktualisierung: 07.08.2020 8:50
Klar  
Klar  
   Wind: variiert 3.7 km/h
Wind: variiert 3.7 km/h
Temperatur: 27°C
Taupunkt: 12°C
Luftfeuchte: 39%
Luftdruck: 1020 hPa
Sichtbarkeit: More than 10 km
Bewölkung: Klar
EDDE 071850Z VRB02KT CAVOK 27/12 Q1020 NOSIG
EDVE - Braunschweig
Aktualisierung: 07.08.2020 5:50
Nicht aktuell
Klar  
Klar  
   Wind: variiert 5.6 km/h
Wind: variiert 5.6 km/h
Temperatur: 31°C
Taupunkt: 15°C
Luftfeuchte: 38%
Luftdruck: 1020 hPa
Sichtbarkeit: More than 10 km
Bewölkung: Klar
EDVE 071550Z VRB03KT CAVOK 31/15 Q1020
EDDV - Hannover
Aktualisierung: 07.08.2020 8:50
Klar  
Klar  
   Wind: ONO 3.7 km/h
Wind: ONO 3.7 km/h
Temperatur: 28°C
Hitzeindex: 28°C
Taupunkt: 15°C
Luftfeuchte: 45%
Luftdruck: 1019 hPa
Sichtbarkeit: More than 10 km
Bewölkung: Klar
EDDV 071850Z 07002KT CAVOK 28/15 Q1019 NOSIG
EDDT - Berlin
Aktualisierung: 07.08.2020 8:50
Klar  
Klar  
   Wind: variiert 3.7 km/h
Wind: variiert 3.7 km/h
Temperatur: 28°C
Hitzeindex: 28°C
Taupunkt: 17°C
Luftfeuchte: 51%
Luftdruck: 1020 hPa
Sichtbarkeit: More than 10 km
Bewölkung: Klar
EDDT 071850Z VRB02KT CAVOK 28/17 Q1020 NOSIG
EDDE - Schwerin
Aktualisierung: 07.08.2020 8:50
Klar  
Klar  
   Wind: variiert 3.7 km/h
Wind: variiert 3.7 km/h
Temperatur: 27°C
Taupunkt: 12°C
Luftfeuchte: 39%
Luftdruck: 1020 hPa
Sichtbarkeit: More than 10 km
Bewölkung: Klar
EDDE 071850Z VRB02KT CAVOK 27/12 Q1020 NOSIG
EDHI - Hamburg
Aktualisierung: 07.08.2020 8:50
Klar  
Klar  
   Wind: ONO 14.8 km/h
Wind: ONO 14.8 km/h
Temperatur: 28°C
Hitzeindex: 28°C
Taupunkt: 15°C
Luftfeuchte: 45%
Luftdruck: 1020 hPa
Bewölkt: Klar
Sichtbarkeit: More than 10 km
Bewölkung: Klar
EDHI 071850Z AUTO 06008KT 9999 // NCD 28/15 Q1020
EDDK - Köln-Bonn
Aktualisierung: 07.08.2020 8:50
Klar  
Klar  
   Wind: ONO 5.6 km/h
Wind: ONO 5.6 km/h
Temperatur: 29°C
Taupunkt: 12°C
Luftfeuchte: 35%
Luftdruck: 1018 hPa
Sichtbarkeit: More than 10 km
Bewölkung: Klar
EDDK 071850Z 06003KT CAVOK 29/12 Q1018 NOSIG
EDHL - Lübeck-Blankensee
Aktualisierung: 07.08.2020 6:50
Nicht aktuell
Klar  
Klar  
   Wind: NO 20.4 km/h
Wind: NO 20.4 km/h
Temperatur: 28°C
Hitzeindex: 28°C
Taupunkt: 15°C
Luftfeuchte: 45%
Luftdruck: 1021 hPa
Sichtbarkeit: More than 10 km
Bewölkung: Klar
EDHL 071650Z 04011KT CAVOK 28/15 Q1021
  

Script entwickelt von  Saratoga-weather.org Angepasst für das Template von  Weerstation Leuven

Sie finden die Wetterinfo auch auf:

Wetternetzwerk Deutschland

European Weather Network

Weather Underground

Regionalwetter-SA

wetter.com

wxforum.de

Genutzte Hardware, Software und WEB Anbieter:

Wetterstation
Ventus W928-Ultimate

Wetterprogramm
Meteohub

WetterComputer
RaspberryPI

Anbieter
WEB Provider One.com

Ventus W928-Ultimate

Meteohub

RaspberryPI

WEB Provider One.com